Oconto, NE (68860)

1:28 PM CDT on October 01, 2014 (GMT -0500)
South of Town | Change Station
CLOSE
Current Station
Personal Weather Station
Location: Broken Bow, NE
Elevation: 2523 ft
Nearby Weather Stations

Elev 2523 ft 41.38 °N, 99.64 °W | Updated 8 seconds ago

Partly Cloudy
Partly Cloudy
72.4 °F
Feels Like 77 °F
N
3.0
Wind Variable Wind from North
Gusts 6.0 mph

Today
High -- | Low -- °F
--% Chance of Precip.
Yesterday
High -- | Low -- °F
Precip. -- in
7:35 AM 7:20 PM
Waxing Crescent, 50% visible
Pressure 29.68 in
Visibility 10.0 miles
Clouds Clear
Heat Index 77 °F
Dew Point 50 °F
Humidity 46%
Rainfall 0.00 in
Snow Depth Not available.
UV 6 out of 12
Pollen 4.00 out of 12
Air Quality Not available.
Flu Activity Not available.
METAR KBBW 301753Z AUTO 20015G23KT 10SM CLR 23/09 A2974 RMK AO2 SLP050 T02330089 10239 20144 58007

More Conditions Fewer Conditions

Pressure 29.68 in
Visibility 10.0 miles
Clouds Clear
Heat Index 77 °F
Dew Point 50 °F
Humidity 46%
Rainfall 0.00 in
Snow Depth Not available.
UV 6 out of 12
Pollen 4.00 out of 12
Air Quality Not available.
Flu Activity Not available.
METAR KBBW 301753Z AUTO 20015G23KT 10SM CLR 23/09 A2974 RMK AO2 SLP050 T02330089 10239 20144 58007

More Conditions Fewer Conditions

10-Day Weather Forecast

Almanac

Astronomy

Oct. 01, 2014 Rise Set
Actual Time 7:35 AM CDT 7:20 PM CDT
Civil Twilight 7:07 AM CDT 7:47 PM CDT
Nautical Twilight 6:35 AM CDT 8:19 PM CDT
Astronomical Twilight 6:03 AM CDT 8:52 PM CDT
Moon 2:40 PM CDT No Moon Set
Length of Visible Light 12h 40m
Length of Day
11h 45m
Tomorrow will be 2m 42s shorter.
Waxing Crescent, 50% of the Moon is Illuminated
Today
Waxing Crescent
Oct 1
First Quarter
Oct 8
Full
Oct 15
Last Quarter
Oct 23
New

Today's Extremes

State Highs State Lows

Community

WunderPhotos

Upload Photos

1,758,008 photos uploaded!

WunderBlogs® & News

By Dr. Jeff Masters
Director of Meteorology, Weather Underground
By Kari Strenfel
Meteorologist, Weather Underground
By Christopher C. Burt
Weather Historian, Weather Underground
October 1, 2014
October 1, 2014
October 1, 2014

Nearby

Snow Depth

Station Depth Elevation
No new snow has been reported.

Earthquake Activity

City Distance Mag. Time & Date
No recent earthquake activity has been reported nearby.
Minimum magnitude displayed is 2.5.

Coastal Water Temperatures

Place Temperature
No Stations Reporting

Nearby Weather Stations